Time;durP1;ratioP1;P1;durP2;ratioP2;P2;SDS_P1;SDS_P2;PMS_P1;PMS_P2;Temp;Humidity;BMP_temperature;BMP_pressure;BME280_temperature;BME280_humidity;BME280_pressure;Samples;Min_cycle;Max_cycle;Signal;HPM_P1;HPM_P2
2022/09/24 00:01:10;;;;;;;639.20;581.70;;;15.90;99.90;;;;;;5042597;28;20215;-74
2022/09/24 00:03:36;;;;;;;644.00;586.63;;;15.90;99.90;;;;;;5047739;28;20297;-74
2022/09/24 00:06:05;;;;;;;628.60;570.80;;;15.90;99.90;;;;;;5045014;28;20195;-74
2022/09/24 00:08:32;;;;;;;646.47;588.72;;;15.90;99.90;;;;;;5047787;28;20237;-74
2022/09/24 00:11:01;;;;;;;646.15;587.75;;;15.80;99.90;;;;;;5045108;28;20202;-74
2022/09/24 00:13:28;;;;;;;639.97;582.17;;;15.90;99.90;;;;;;5044995;28;20202;-74
2022/09/24 00:15:55;;;;;;;656.42;598.33;;;15.90;99.90;;;;;;5044230;28;20199;-75
2022/09/24 00:18:23;;;;;;;675.05;616.33;;;15.80;99.90;;;;;;5045539;28;20253;-74
2022/09/24 00:20:50;;;;;;;641.00;583.03;;;15.80;99.90;;;;;;5048070;28;20199;-74
2022/09/24 00:23:16;;;;;;;650.13;591.45;;;15.80;99.90;;;;;;5047154;28;20214;-74
2022/09/24 00:28:29;;;;;;;635.92;577.15;;;15.80;99.90;;;;;;5044958;28;20348;-75
2022/09/24 00:30:57;;;;;;;649.38;588.88;;;15.80;99.90;;;;;;5038657;28;20303;-75
2022/09/24 00:33:27;;;;;;;658.53;596.95;;;15.80;99.90;;;;;;5046420;28;20692;-76
2022/09/24 00:35:58;;;;;;;652.30;591.05;;;15.80;99.90;;;;;;5046246;28;20190;-76
2022/09/24 00:38:25;;;;;;;655.30;593.63;;;15.80;99.90;;;;;;5047254;28;20613;-76
2022/09/24 00:40:51;;;;;;;653.42;593.33;;;15.80;99.90;;;;;;5047680;28;20199;-76
2022/09/24 00:43:23;;;;;;;660.90;600.13;;;15.80;99.90;;;;;;5043264;28;20202;-76
2022/09/24 00:45:51;;;;;;;656.63;594.15;;;15.80;99.90;;;;;;5042834;28;20198;-75
2022/09/24 00:48:18;;;;;;;671.05;605.15;;;15.80;99.90;;;;;;5047069;28;20240;-73
2022/09/24 00:50:47;;;;;;;672.13;606.15;;;15.80;99.90;;;;;;5045385;28;20197;-77
2022/09/24 00:53:18;;;;;;;649.88;586.20;;;15.80;99.90;;;;;;5048454;28;20201;-76
2022/09/24 00:55:47;;;;;;;657.65;594.97;;;15.80;99.90;;;;;;5047186;28;20205;-76
2022/09/24 00:58:14;;;;;;;644.10;582.28;;;15.80;99.90;;;;;;5045382;28;20230;-76
2022/09/24 01:00:43;;;;;;;669.42;605.20;;;15.80;99.90;;;;;;5038107;28;20224;-76
2022/09/24 01:03:14;;;;;;;677.90;614.42;;;15.70;99.90;;;;;;5045374;28;20206;-76
2022/09/24 01:05:40;;;;;;;644.63;582.33;;;15.70;99.90;;;;;;5042390;28;20732;-76
2022/09/24 01:08:12;;;;;;;658.17;596.47;;;15.70;99.90;;;;;;5049535;28;20225;-76
2022/09/24 01:10:50;;;;;;;645.28;584.70;;;15.70;99.90;;;;;;5043943;28;20675;-75
2022/09/24 01:13:41;;;;;;;647.67;588.08;;;15.70;99.90;;;;;;5048600;28;20198;-76
2022/09/24 01:16:22;;;;;;;628.72;569.85;;;15.70;99.90;;;;;;5042635;28;20213;-76
2022/09/24 01:18:56;;;;;;;635.58;575.70;;;15.70;99.90;;;;;;5054917;28;20276;-76
2022/09/24 01:21:39;;;;;;;655.47;594.55;;;15.70;99.90;;;;;;5049459;28;20197;-76
2022/09/24 01:24:28;;;;;;;644.33;584.30;;;15.70;99.90;;;;;;5048164;28;20209;-76
2022/09/24 01:27:03;;;;;;;645.75;585.70;;;15.70;99.90;;;;;;5044674;28;20206;-76
2022/09/24 01:29:43;;;;;;;643.80;584.00;;;15.70;99.90;;;;;;5049310;28;20221;-76
2022/09/24 01:32:18;;;;;;;643.47;583.85;;;15.70;99.90;;;;;;5039712;28;20212;-76
2022/09/24 01:34:49;;;;;;;636.35;577.65;;;15.70;99.90;;;;;;5051745;28;20247;-75
2022/09/24 01:37:19;;;;;;;648.90;590.47;;;15.60;99.90;;;;;;5047803;28;20194;-76
2022/09/24 01:39:47;;;;;;;642.67;584.40;;;15.70;99.90;;;;;;5041573;28;20539;-76
2022/09/24 01:42:14;;;;;;;632.90;575.70;;;15.60;99.90;;;;;;5045371;28;20209;-75
2022/09/24 01:44:44;;;;;;;641.63;584.67;;;15.70;99.90;;;;;;5048146;28;20198;-76
2022/09/24 01:47:17;;;;;;;652.72;595.38;;;15.70;99.90;;;;;;5043483;28;20221;-77
2022/09/24 01:49:44;;;;;;;637.25;580.03;;;15.60;99.90;;;;;;5049525;28;20233;-76
2022/09/24 01:52:16;;;;;;;627.65;570.25;;;15.60;99.90;;;;;;5049654;28;20739;-76
2022/09/24 01:54:49;;;;;;;634.35;577.95;;;15.70;99.90;;;;;;5048800;28;20198;-76
2022/09/24 01:57:20;;;;;;;634.17;577.20;;;15.60;99.90;;;;;;5047937;28;20261;-76
2022/09/24 01:59:54;;;;;;;625.28;568.70;;;15.60;99.90;;;;;;5047660;28;20212;-75
2022/09/24 02:02:26;;;;;;;657.85;599.70;;;15.60;99.90;;;;;;5038044;28;20201;-74
2022/09/24 02:04:58;;;;;;;644.53;586.78;;;15.60;99.90;;;;;;5048828;28;20194;-75
2022/09/24 02:07:29;;;;;;;629.80;572.63;;;15.60;99.90;;;;;;5046754;28;20229;-76
2022/09/24 02:09:56;;;;;;;641.33;583.17;;;15.60;99.90;;;;;;5040627;28;20324;-75
2022/09/24 02:12:29;;;;;;;641.67;583.22;;;15.60;99.90;;;;;;5047755;28;20215;-74
2022/09/24 02:15:01;;;;;;;641.65;582.67;;;15.60;99.90;;;;;;5050468;28;20225;-75
2022/09/24 02:17:33;;;;;;;638.05;578.58;;;15.60;99.90;;;;;;5044413;28;20219;-74
2022/09/24 02:20:03;;;;;;;637.75;577.58;;;15.60;99.90;;;;;;5049348;28;20222;-75
2022/09/24 02:22:30;;;;;;;651.50;591.17;;;15.60;99.90;;;;;;5047186;28;20203;-75
2022/09/24 02:25:00;;;;;;;629.67;569.75;;;15.60;99.90;;;;;;5049330;28;20584;-75
2022/09/24 02:27:27;;;;;;;634.58;573.75;;;15.60;99.90;;;;;;5049102;28;20248;-74
2022/09/24 02:29:54;;;;;;;655.95;593.80;;;15.60;99.90;;;;;;5046148;28;20252;-74
2022/09/24 02:32:24;;;;;;;642.47;580.63;;;15.60;99.90;;;;;;5045486;28;20295;-74
2022/09/24 02:34:54;;;;;;;647.58;584.35;;;15.60;99.90;;;;;;5047993;28;20202;-74
2022/09/24 02:37:23;;;;;;;652.78;591.72;;;15.50;99.90;;;;;;5045389;28;20252;-74
2022/09/24 02:39:50;;;;;;;639.22;580.05;;;15.50;99.90;;;;;;5044849;28;20609;-73
2022/09/24 02:42:19;;;;;;;630.83;571.55;;;15.50;99.90;;;;;;5047886;28;20198;-75
2022/09/24 02:44:46;;;;;;;640.22;580.83;;;15.50;99.90;;;;;;5047128;28;20666;-76
2022/09/24 02:47:13;;;;;;;648.15;588.15;;;15.50;99.90;;;;;;5045446;28;20285;-77
2022/09/24 02:49:41;;;;;;;631.17;568.65;;;15.60;99.90;;;;;;5049748;28;20587;-76
2022/09/24 02:52:09;;;;;;;639.38;575.75;;;15.50;99.90;;;;;;5047454;28;20291;-76
2022/09/24 02:54:35;;;;;;;665.10;600.35;;;15.50;99.90;;;;;;5046541;28;20354;-76
2022/09/24 02:57:02;;;;;;;644.28;582.15;;;15.50;99.90;;;;;;5047544;28;20255;-76
2022/09/24 02:59:29;;;;;;;649.83;588.33;;;15.50;99.90;;;;;;5042362;28;20254;-76
2022/09/24 03:01:55;;;;;;;622.58;562.42;;;15.50;99.90;;;;;;5044038;28;20573;-76
2022/09/24 03:04:22;;;;;;;637.88;577.58;;;15.50;99.90;;;;;;5050879;28;20197;-76
2022/09/24 03:06:50;;;;;;;656.15;595.22;;;15.50;99.90;;;;;;5045463;28;20206;-76
2022/09/24 03:09:17;;;;;;;638.88;577.45;;;15.50;99.90;;;;;;5047901;28;20229;-76
2022/09/24 03:11:43;;;;;;;660.78;598.72;;;15.50;99.90;;;;;;5047575;28;20518;-76
2022/09/24 03:14:10;;;;;;;634.78;572.45;;;15.50;99.90;;;;;;5047696;28;20199;-76
2022/09/24 03:16:37;;;;;;;645.03;582.55;;;15.50;99.90;;;;;;5041494;28;20275;-76
2022/09/24 03:19:04;;;;;;;630.13;568.60;;;15.50;99.90;;;;;;5049363;28;20201;-76
2022/09/24 03:21:30;;;;;;;640.70;581.20;;;15.50;99.90;;;;;;5046146;28;20201;-76
2022/09/24 03:23:59;;;;;;;630.85;571.55;;;15.50;99.90;;;;;;5048649;28;20229;-77
2022/09/24 03:26:26;;;;;;;631.97;572.83;;;15.40;99.90;;;;;;5045412;28;20285;-76
2022/09/24 03:28:52;;;;;;;644.63;584.95;;;15.50;99.90;;;;;;5046000;28;20212;-76
2022/09/24 03:31:18;;;;;;;638.17;578.47;;;15.50;99.90;;;;;;5038737;28;20645;-76
2022/09/24 03:33:46;;;;;;;638.30;579.40;;;15.50;99.90;;;;;;5045547;28;20272;-76
2022/09/24 03:36:14;;;;;;;628.85;568.75;;;15.50;99.90;;;;;;5044713;28;20601;-76
2022/09/24 03:38:42;;;;;;;636.42;576.10;;;15.40;99.90;;;;;;5048003;28;20235;-76
2022/09/24 03:41:12;;;;;;;636.95;576.45;;;15.40;99.90;;;;;;5048130;28;20202;-76
2022/09/24 03:43:39;;;;;;;629.80;570.33;;;15.40;99.90;;;;;;5049208;28;20609;-76
2022/09/24 03:46:07;;;;;;;641.85;581.17;;;15.40;99.90;;;;;;5040595;28;20199;-76
2022/09/24 03:48:35;;;;;;;632.58;571.33;;;15.40;99.90;;;;;;5047880;28;20684;-76
2022/09/24 03:51:04;;;;;;;641.15;579.17;;;15.40;99.90;;;;;;5044586;28;20213;-76
2022/09/24 03:53:31;;;;;;;648.13;583.88;;;15.40;99.90;;;;;;5047763;28;20213;-76
2022/09/24 03:55:58;;;;;;;630.65;568.25;;;15.40;99.90;;;;;;5046831;28;20198;-76
2022/09/24 03:58:26;;;;;;;631.65;569.55;;;15.40;99.90;;;;;;5045901;28;20197;-76
2022/09/24 04:00:53;;;;;;;629.50;568.72;;;15.40;99.90;;;;;;5039467;28;20694;-76
2022/09/24 04:03:20;;;;;;;645.30;582.35;;;15.40;99.90;;;;;;5045502;28;20197;-76
2022/09/24 04:05:47;;;;;;;641.80;579.65;;;15.40;99.90;;;;;;5047140;28;20204;-76
2022/09/24 04:08:14;;;;;;;628.63;567.53;;;15.40;99.90;;;;;;5047792;28;20286;-76
2022/09/24 04:10:41;;;;;;;634.60;573.80;;;15.40;99.90;;;;;;5044211;28;20226;-76
2022/09/24 04:13:07;;;;;;;659.38;599.60;;;15.40;99.90;;;;;;5043968;28;20207;-76
2022/09/24 04:15:35;;;;;;;626.88;567.88;;;15.40;99.90;;;;;;5044949;28;20273;-75
2022/09/24 04:18:02;;;;;;;624.38;566.00;;;15.40;99.90;;;;;;5043004;28;20221;-76
2022/09/24 04:20:29;;;;;;;631.53;572.85;;;15.40;99.90;;;;;;5046220;28;20210;-75
2022/09/24 04:22:58;;;;;;;630.17;571.22;;;15.40;99.90;;;;;;5040789;28;20744;-76
2022/09/24 04:25:27;;;;;;;651.55;593.60;;;15.30;99.90;;;;;;5046284;28;20619;-75
2022/09/24 04:27:55;;;;;;;650.95;593.53;;;15.40;99.90;;;;;;5044033;28;20198;-75
2022/09/24 04:30:22;;;;;;;636.45;578.72;;;15.30;99.90;;;;;;5044142;28;20279;-75
2022/09/24 04:32:50;;;;;;;619.75;563.35;;;15.40;99.90;;;;;;5046886;28;20197;-75
2022/09/24 04:35:17;;;;;;;611.42;555.50;;;15.30;99.90;;;;;;5047660;28;20289;-75
2022/09/24 04:37:45;;;;;;;627.55;571.13;;;15.30;99.90;;;;;;5043408;28;20206;-75
2022/09/24 04:40:12;;;;;;;610.35;554.65;;;15.30;99.90;;;;;;5047912;28;20566;-75
2022/09/24 04:42:39;;;;;;;614.75;558.80;;;15.30;99.90;;;;;;5049009;28;20202;-75
2022/09/24 04:45:07;;;;;;;609.97;553.47;;;15.30;99.90;;;;;;5044149;28;20198;-75
2022/09/24 04:47:34;;;;;;;599.72;543.53;;;15.30;99.90;;;;;;5045170;28;20289;-75
2022/09/24 04:50:03;;;;;;;616.75;560.50;;;15.30;99.90;;;;;;5047608;28;20697;-75
2022/09/24 04:52:32;;;;;;;618.85;563.20;;;15.30;99.90;;;;;;5048406;28;20201;-75
2022/09/24 04:54:59;;;;;;;614.38;560.00;;;15.30;99.90;;;;;;5051203;28;20225;-75
2022/09/24 04:57:26;;;;;;;611.30;556.13;;;15.30;99.90;;;;;;5045081;28;20195;-75
2022/09/24 04:59:53;;;;;;;619.45;563.95;;;15.30;99.90;;;;;;5050157;28;20205;-76
2022/09/24 05:02:20;;;;;;;638.45;582.33;;;15.30;99.90;;;;;;5043932;28;20196;-75
2022/09/24 05:04:47;;;;;;;610.55;555.08;;;15.30;99.90;;;;;;5051837;28;20611;-77
2022/09/24 05:07:15;;;;;;;627.33;571.47;;;15.30;99.90;;;;;;5048413;28;20543;-76
2022/09/24 05:09:41;;;;;;;602.33;547.20;;;15.30;99.90;;;;;;5048219;28;20264;-75
2022/09/24 05:12:08;;;;;;;606.00;551.17;;;15.30;99.90;;;;;;5048163;28;20223;-75
2022/09/24 05:14:35;;;;;;;597.25;542.35;;;15.30;99.90;;;;;;5050098;28;20221;-77
2022/09/24 05:17:01;;;;;;;603.70;548.13;;;15.30;99.90;;;;;;5044606;28;20224;-76
2022/09/24 05:19:28;;;;;;;613.85;557.35;;;15.30;99.90;;;;;;5050259;28;20217;-76
2022/09/24 05:21:55;;;;;;;621.00;564.47;;;15.20;99.90;;;;;;5050086;28;20203;-76
2022/09/24 05:24:23;;;;;;;608.80;554.13;;;15.30;99.90;;;;;;5045457;28;20201;-76
2022/09/24 05:29:34;;;;;;;620.70;566.17;;;15.20;99.90;;;;;;5049021;28;20311;-75
2022/09/24 05:32:04;;;;;;;617.83;563.38;;;15.20;99.90;;;;;;5048112;28;20576;-75
2022/09/24 05:34:31;;;;;;;605.40;551.13;;;15.20;99.90;;;;;;5051042;28;20223;-75
2022/09/24 05:36:58;;;;;;;608.70;554.17;;;15.20;99.90;;;;;;5049913;28;20201;-75
2022/09/24 05:39:27;;;;;;;612.70;558.17;;;15.20;99.90;;;;;;5048983;28;20201;-75
2022/09/24 05:41:53;;;;;;;600.15;546.00;;;15.20;99.90;;;;;;5048233;28;20249;-75
2022/09/24 05:44:20;;;;;;;612.38;558.55;;;15.20;99.90;;;;;;5048443;28;20644;-74
2022/09/24 05:46:47;;;;;;;606.90;552.40;;;15.20;99.90;;;;;;5042841;28;20193;-74
2022/09/24 05:49:14;;;;;;;611.97;557.33;;;15.20;99.90;;;;;;5049152;28;20224;-75
2022/09/24 05:51:40;;;;;;;614.08;559.15;;;15.20;99.90;;;;;;5049156;28;20270;-74
2022/09/24 05:54:07;;;;;;;596.28;542.08;;;15.20;99.90;;;;;;5047041;28;20193;-74
2022/09/24 05:56:35;;;;;;;619.83;565.22;;;15.20;99.90;;;;;;5049005;28;20600;-74
2022/09/24 05:59:02;;;;;;;620.42;564.97;;;15.20;99.90;;;;;;5047144;28;20201;-74
2022/09/24 06:01:29;;;;;;;607.42;552.63;;;15.20;99.90;;;;;;5046816;28;20255;-74
2022/09/24 06:03:56;;;;;;;606.80;552.33;;;15.20;99.90;;;;;;5049444;28;20653;-74
2022/09/24 06:06:23;;;;;;;609.20;555.03;;;15.20;99.90;;;;;;5047520;28;20199;-74
2022/09/24 06:08:49;;;;;;;604.53;550.60;;;15.20;99.90;;;;;;5048618;28;20547;-74
2022/09/24 06:11:17;;;;;;;602.42;547.47;;;15.20;99.90;;;;;;5048585;28;20278;-75
2022/09/24 06:13:45;;;;;;;596.17;542.47;;;15.20;99.90;;;;;;5048737;28;20229;-76
2022/09/24 06:16:12;;;;;;;593.85;539.67;;;15.20;99.90;;;;;;5043004;28;20284;-76
2022/09/24 06:18:41;;;;;;;592.60;538.30;;;15.20;99.90;;;;;;5050400;28;20283;-76
2022/09/24 06:21:10;;;;;;;630.97;575.08;;;15.20;99.90;;;;;;5049698;28;20200;-76
2022/09/24 06:23:37;;;;;;;616.33;559.95;;;15.20;99.90;;;;;;5047279;28;20209;-76
2022/09/24 06:26:06;;;;;;;606.67;549.83;;;15.20;99.90;;;;;;5047732;28;20201;-76
2022/09/24 06:28:33;;;;;;;624.35;565.83;;;15.20;99.90;;;;;;5047229;28;20240;-76
2022/09/24 06:31:01;;;;;;;640.15;581.58;;;15.20;99.90;;;;;;5043657;28;20586;-76
2022/09/24 06:33:29;;;;;;;624.75;566.10;;;15.20;99.90;;;;;;5044524;28;20237;-76
2022/09/24 06:36:00;;;;;;;615.97;556.88;;;15.20;99.90;;;;;;5048489;28;20292;-76
2022/09/24 06:38:26;;;;;;;614.88;557.17;;;15.20;99.90;;;;;;5046373;28;20222;-76
2022/09/24 06:40:58;;;;;;;615.95;556.40;;;15.20;99.90;;;;;;5049558;28;20630;-76
2022/09/24 06:43:24;;;;;;;628.67;569.13;;;15.20;99.90;;;;;;5042501;28;20199;-76
2022/09/24 06:45:54;;;;;;;624.22;564.03;;;15.20;99.90;;;;;;5045116;28;20207;-76
2022/09/24 06:48:22;;;;;;;602.95;544.20;;;15.20;99.90;;;;;;5047071;28;20656;-76
2022/09/24 06:50:49;;;;;;;605.42;547.97;;;15.20;99.90;;;;;;5049112;28;20232;-76
2022/09/24 06:53:16;;;;;;;625.05;566.88;;;15.20;99.90;;;;;;5046256;28;20206;-76
2022/09/24 06:55:43;;;;;;;641.78;583.13;;;15.20;99.90;;;;;;5048233;28;20191;-76
2022/09/24 06:58:11;;;;;;;611.67;553.63;;;15.20;99.90;;;;;;5047047;28;20196;-76
2022/09/24 07:00:39;;;;;;;617.25;558.15;;;15.20;99.90;;;;;;5045912;28;20200;-76
2022/09/24 07:03:06;;;;;;;635.42;575.63;;;15.20;99.90;;;;;;5046203;28;20197;-75
2022/09/24 07:05:35;;;;;;;611.78;552.17;;;15.20;99.90;;;;;;5046188;28;20212;-75
2022/09/24 07:08:02;;;;;;;634.30;573.83;;;15.20;99.90;;;;;;5050494;28;20216;-75
2022/09/24 07:10:28;;;;;;;620.13;559.75;;;15.20;99.90;;;;;;5044409;28;20297;-75
2022/09/24 07:12:55;;;;;;;615.15;555.42;;;15.20;99.90;;;;;;5046281;28;20248;-77
2022/09/24 07:15:22;;;;;;;637.63;576.63;;;15.20;99.90;;;;;;5046886;28;20191;-77
2022/09/24 07:17:48;;;;;;;632.03;572.13;;;15.30;99.90;;;;;;5037749;28;20269;-76
2022/09/24 07:20:15;;;;;;;625.63;565.47;;;15.30;99.90;;;;;;5046750;28;20240;-77
2022/09/24 07:22:43;;;;;;;626.63;567.92;;;15.30;99.90;;;;;;5049680;28;20212;-76
2022/09/24 07:25:11;;;;;;;605.00;548.25;;;15.30;99.90;;;;;;5045887;28;20604;-77
2022/09/24 07:27:39;;;;;;;609.45;552.58;;;15.30;99.90;;;;;;5047155;28;20196;-75
2022/09/24 07:30:07;;;;;;;599.80;543.22;;;15.30;99.90;;;;;;5048166;28;20265;-76
2022/09/24 07:32:34;;;;;;;605.95;549.75;;;15.30;99.90;;;;;;5044892;28;20205;-75
2022/09/24 07:35:01;;;;;;;606.17;549.72;;;15.30;99.90;;;;;;5048270;28;20625;-76
2022/09/24 07:37:27;;;;;;;616.72;559.53;;;15.30;99.90;;;;;;5041991;28;20195;-76
2022/09/24 07:39:55;;;;;;;628.42;570.22;;;15.30;99.90;;;;;;5045454;28;20208;-76
2022/09/24 07:42:22;;;;;;;616.78;558.63;;;15.30;99.90;;;;;;5047566;28;20202;-75
2022/09/24 07:44:49;;;;;;;624.72;567.20;;;15.30;99.90;;;;;;5046682;28;20201;-76
2022/09/24 07:47:16;;;;;;;614.63;556.08;;;15.40;99.90;;;;;;5041665;28;20205;-76
2022/09/24 07:49:43;;;;;;;645.55;586.90;;;15.40;99.90;;;;;;5041948;28;20197;-76
2022/09/24 07:52:10;;;;;;;623.70;565.20;;;15.40;99.90;;;;;;5044777;28;20302;-76
2022/09/24 07:54:37;;;;;;;621.15;562.30;;;15.40;99.90;;;;;;5047421;28;20200;-76
2022/09/24 07:57:11;;;;;;;626.38;567.42;;;15.40;99.90;;;;;;5046545;28;20656;-73
2022/09/24 07:59:38;;;;;;;643.30;584.00;;;15.40;99.90;;;;;;5040146;28;20200;-75
2022/09/24 08:02:13;;;;;;;612.90;553.95;;;15.40;99.90;;;;;;5042688;28;20245;-76
2022/09/24 08:04:40;;;;;;;643.55;584.08;;;15.40;99.90;;;;;;5034447;28;20227;-76
2022/09/24 08:07:07;;;;;;;642.08;581.95;;;15.50;99.90;;;;;;5046597;28;20667;-76
2022/09/24 08:09:34;;;;;;;646.97;587.08;;;15.50;99.90;;;;;;5041878;28;20605;-77
2022/09/24 08:12:01;;;;;;;665.15;605.00;;;15.50;99.90;;;;;;5049108;28;20224;-76
2022/09/24 08:14:29;;;;;;;633.55;574.00;;;15.50;99.90;;;;;;5043506;28;20198;-76
2022/09/24 08:16:56;;;;;;;633.80;574.10;;;15.60;99.90;;;;;;5041963;28;20224;-76
2022/09/24 08:19:22;;;;;;;629.97;570.47;;;15.60;99.90;;;;;;5045837;28;20236;-76
2022/09/24 08:21:49;;;;;;;639.72;580.42;;;15.60;99.90;;;;;;5044815;28;20209;-76
2022/09/24 08:24:16;;;;;;;621.97;564.75;;;15.60;99.90;;;;;;5044853;28;20204;-75
2022/09/24 08:26:46;;;;;;;651.80;593.75;;;15.60;99.90;;;;;;5047374;28;20289;-74
2022/09/24 08:29:12;;;;;;;633.38;575.58;;;15.60;99.90;;;;;;5045226;28;20197;-75
2022/09/24 08:31:41;;;;;;;632.30;574.40;;;15.60;99.90;;;;;;5041476;28;20257;-75
2022/09/24 08:34:08;;;;;;;639.10;580.72;;;15.70;99.90;;;;;;5047859;28;20197;-76
2022/09/24 08:36:34;;;;;;;633.47;575.35;;;15.70;99.90;;;;;;5045429;28;20211;-75
2022/09/24 08:39:01;;;;;;;652.03;592.17;;;15.70;99.90;;;;;;5042012;28;20194;-75
2022/09/24 08:41:49;;;;;;;653.83;594.38;;;15.80;99.90;;;;;;5041803;28;20205;-76
2022/09/24 08:47:22;;;;;;;651.97;590.97;;;15.80;99.90;;;;;;5041877;28;20336;-75
2022/09/24 08:49:55;;;;;;;641.70;580.45;;;15.70;99.90;;;;;;5047818;28;20354;-76
2022/09/24 08:52:33;;;;;;;647.80;584.97;;;15.70;99.90;;;;;;5045167;28;20310;-76
2022/09/24 08:55:07;;;;;;;654.22;589.40;;;15.80;99.90;;;;;;5040690;28;20261;-79
2022/09/24 08:57:40;;;;;;;677.95;611.22;;;15.80;99.90;;;;;;5045375;28;20208;-76
2022/09/24 09:00:13;;;;;;;672.85;602.67;;;15.80;99.90;;;;;;5046892;28;20199;-78
2022/09/24 09:02:47;;;;;;;656.40;589.53;;;15.80;99.90;;;;;;5042731;28;20197;-78
2022/09/24 09:05:26;;;;;;;666.80;599.35;;;15.80;99.90;;;;;;5045266;28;20277;-75
2022/09/24 09:08:00;;;;;;;667.17;595.95;;;15.90;99.90;;;;;;5046171;28;20562;-76
2022/09/24 09:10:32;;;;;;;675.08;609.13;;;15.90;99.90;;;;;;5045708;28;20257;-78
2022/09/24 09:13:06;;;;;;;661.05;596.85;;;15.90;99.90;;;;;;5046488;28;20200;-78
2022/09/24 09:15:36;;;;;;;660.05;595.33;;;15.90;99.90;;;;;;5043349;28;20290;-80
2022/09/24 09:18:13;;;;;;;663.53;597.13;;;15.90;99.90;;;;;;5040469;28;20224;-79
2022/09/24 09:20:42;;;;;;;649.42;586.33;;;15.90;99.90;;;;;;5043926;28;20208;-77
2022/09/24 09:23:15;;;;;;;672.33;608.83;;;16.00;99.90;;;;;;5038887;28;20216;-78
2022/09/24 09:25:50;;;;;;;678.00;615.97;;;16.00;99.90;;;;;;5044518;28;20191;-75
2022/09/24 09:28:16;;;;;;;668.35;607.28;;;16.00;99.90;;;;;;5043469;28;20661;-75
2022/09/24 09:30:55;;;;;;;680.13;618.45;;;16.00;99.90;;;;;;5046214;28;20487;-77
2022/09/24 09:33:35;;;;;;;670.60;608.60;;;16.10;99.90;;;;;;5048269;28;20234;-78
2022/09/24 09:36:08;;;;;;;661.67;599.83;;;16.10;99.90;;;;;;5047643;28;20263;-80
2022/09/24 09:38:42;;;;;;;690.60;627.53;;;16.10;99.90;;;;;;5049145;28;20208;-77
2022/09/24 09:41:18;;;;;;;666.88;603.88;;;16.10;99.90;;;;;;5049650;28;20202;-79
2022/09/24 09:43:46;;;;;;;656.95;594.45;;;16.20;99.90;;;;;;5047723;28;20203;-78
2022/09/24 09:46:18;;;;;;;667.15;603.22;;;16.20;99.90;;;;;;5044517;28;20199;-79
2022/09/24 09:48:50;;;;;;;668.35;606.00;;;16.20;99.90;;;;;;5047419;28;20198;-79
2022/09/24 09:51:19;;;;;;;669.75;607.40;;;16.20;99.90;;;;;;5046759;28;20219;-80
2022/09/24 09:53:55;;;;;;;695.25;632.40;;;16.20;99.90;;;;;;5051551;28;20290;-78
2022/09/24 09:56:25;;;;;;;683.88;620.40;;;16.20;99.90;;;;;;5042388;28;20309;-79
2022/09/24 09:59:02;;;;;;;674.25;610.22;;;16.30;99.90;;;;;;5048852;28;20207;-79
2022/09/24 10:01:32;;;;;;;689.95;624.92;;;16.20;99.90;;;;;;5046024;28;20221;-79
2022/09/24 10:04:03;;;;;;;678.50;616.15;;;16.30;99.90;;;;;;5048385;28;20768;-78
2022/09/24 10:06:32;;;;;;;679.05;617.00;;;16.30;99.90;;;;;;5048666;28;20294;-79
2022/09/24 10:09:12;;;;;;;692.03;629.95;;;16.30;99.90;;;;;;5043135;28;20195;-78
2022/09/24 10:11:39;;;;;;;657.13;597.15;;;16.30;99.90;;;;;;5042270;28;20215;-80
2022/09/24 10:14:10;;;;;;;671.50;608.10;;;16.30;99.90;;;;;;5047286;28;20862;-79
2022/09/24 10:16:39;;;;;;;688.70;626.55;;;16.30;99.90;;;;;;5047260;28;20229;-79
2022/09/24 10:19:17;;;;;;;690.13;626.95;;;16.30;99.90;;;;;;5046523;28;20663;-80
2022/09/24 10:21:43;;;;;;;665.33;603.42;;;16.30;99.90;;;;;;5047650;28;20201;-78
2022/09/24 10:24:16;;;;;;;690.33;626.97;;;16.30;99.90;;;;;;5046064;28;20223;-78
2022/09/24 10:26:45;;;;;;;681.60;618.40;;;16.30;99.90;;;;;;5040745;28;20249;-78
2022/09/24 10:31:59;;;;;;;672.50;608.40;;;16.40;99.90;;;;;;5044462;28;20377;-78
2022/09/24 10:34:28;;;;;;;689.65;624.75;;;16.40;99.90;;;;;;5047794;28;20658;-79
2022/09/24 10:37:01;;;;;;;703.70;638.00;;;16.40;99.90;;;;;;5047440;28;20293;-80
2022/09/24 10:39:28;;;;;;;700.72;635.92;;;16.40;99.90;;;;;;5047690;28;20289;-73
2022/09/24 10:41:56;;;;;;;674.05;610.58;;;16.40;99.90;;;;;;5038979;28;20199;-76
2022/09/24 10:44:27;;;;;;;694.45;628.70;;;16.40;99.90;;;;;;5048185;28;20195;-75
2022/09/24 10:47:18;;;;;;;668.55;604.33;;;16.40;99.90;;;;;;5043042;28;20649;-73
2022/09/24 10:50:08;;;;;;;687.28;622.28;;;16.40;99.90;;;;;;5047472;28;20222;-75
2022/09/24 10:52:45;;;;;;;699.72;634.65;;;16.40;99.90;;;;;;5032071;28;20585;-74
2022/09/24 10:55:23;;;;;;;716.13;649.25;;;16.50;99.90;;;;;;5046522;28;20198;-77
2022/09/24 10:57:58;;;;;;;705.10;641.25;;;16.50;99.90;;;;;;5047561;28;20198;-74
2022/09/24 11:00:31;;;;;;;714.85;649.75;;;16.50;99.90;;;;;;5045302;28;20282;-77
2022/09/24 11:03:27;;;;;;;706.60;642.22;;;16.50;99.90;;;;;;5041686;28;20757;-75
2022/09/24 11:06:02;;;;;;;685.45;621.38;;;16.50;99.90;;;;;;5043416;28;20191;-75
2022/09/24 11:09:14;;;;;;;668.60;605.22;;;16.50;99.90;;;;;;5047493;28;20289;-75
2022/09/24 11:11:54;;;;;;;665.83;602.90;;;16.50;99.90;;;;;;5026854;28;20597;-77
2022/09/24 11:14:35;;;;;;;701.38;637.47;;;16.60;99.90;;;;;;5045740;28;20199;-74
2022/09/24 11:17:23;;;;;;;675.83;613.05;;;16.60;99.90;;;;;;5044006;28;20276;-74
2022/09/24 11:20:09;;;;;;;687.08;626.13;;;16.60;99.90;;;;;;5042288;28;20203;-74
2022/09/24 11:22:51;;;;;;;695.95;634.45;;;16.60;99.90;;;;;;5047032;28;20211;-73
2022/09/24 11:25:27;;;;;;;689.85;627.45;;;16.60;99.90;;;;;;5039528;28;20257;-76
2022/09/24 11:28:09;;;;;;;702.50;638.05;;;16.60;99.90;;;;;;5045490;28;20616;-73
2022/09/24 11:30:46;;;;;;;679.00;616.75;;;16.60;99.90;;;;;;5040983;28;20676;-73
2022/09/24 11:33:26;;;;;;;699.67;636.40;;;16.60;99.90;;;;;;5041897;28;20324;-74
2022/09/24 11:36:08;;;;;;;712.47;649.05;;;16.60;99.90;;;;;;5046900;28;20198;-74
2022/09/24 11:38:52;;;;;;;703.53;639.35;;;16.70;99.90;;;;;;5045023;28;20203;-75
2022/09/24 11:41:29;;;;;;;698.03;634.45;;;16.70;99.90;;;;;;5042585;28;20207;-75
2022/09/24 11:44:12;;;;;;;682.20;619.67;;;16.70;99.90;;;;;;5042628;28;20203;-78
2022/09/24 11:46:56;;;;;;;688.90;626.08;;;16.70;99.90;;;;;;5037991;28;20187;-77
2022/09/24 11:49:36;;;;;;;684.45;622.03;;;16.70;99.90;;;;;;5044336;28;20241;-75
2022/09/24 11:52:08;;;;;;;680.63;619.03;;;16.70;99.90;;;;;;5042957;28;20707;-76
2022/09/24 11:54:44;;;;;;;706.35;643.08;;;16.80;99.90;;;;;;5046791;28;20192;-77
2022/09/24 11:57:16;;;;;;;709.25;645.45;;;16.80;99.90;;;;;;5043494;28;20202;-77
2022/09/24 11:59:50;;;;;;;711.92;648.03;;;16.80;99.90;;;;;;5043115;28;20226;-75
2022/09/24 12:02:22;;;;;;;697.03;633.15;;;16.80;99.90;;;;;;5038288;28;20198;-75
2022/09/24 12:04:55;;;;;;;714.70;649.83;;;16.80;99.90;;;;;;5042128;28;20199;-75
2022/09/24 12:07:27;;;;;;;714.95;650.08;;;16.80;99.90;;;;;;5044659;28;20240;-85
2022/09/24 12:10:00;;;;;;;709.53;644.85;;;16.80;99.90;;;;;;5046655;28;20202;-73
2022/09/24 12:12:31;;;;;;;740.70;675.05;;;16.80;99.90;;;;;;5048033;28;20211;-76
2022/09/24 12:15:01;;;;;;;696.08;632.03;;;16.80;99.90;;;;;;5045813;28;20326;-77
2022/09/24 12:17:37;;;;;;;714.33;649.70;;;16.90;99.90;;;;;;5043849;28;20212;-76
2022/09/24 12:20:12;;;;;;;716.78;651.72;;;16.90;99.90;;;;;;5045302;28;20206;-75
2022/09/24 12:22:41;;;;;;;703.78;640.47;;;16.90;99.90;;;;;;5041632;28;20202;-77
2022/09/24 12:25:12;;;;;;;712.33;648.80;;;16.90;99.90;;;;;;5043695;28;20608;-75
2022/09/24 12:27:39;;;;;;;737.95;673.05;;;16.90;99.90;;;;;;5040831;28;20198;-72
2022/09/24 12:33:29;;;;;;;738.97;671.88;;;16.90;99.90;;;;;;5019469;28;20258;-74
2022/09/24 12:36:04;;;;;;;737.45;670.65;;;16.90;99.90;;;;;;5024318;28;20253;-75
2022/09/24 12:38:35;;;;;;;738.40;672.38;;;16.90;99.90;;;;;;5028810;28;20194;-76